Time;durP1;ratioP1;P1;durP2;ratioP2;P2;SDS_P1;SDS_P2;PMS_P1;PMS_P2;Temp;Humidity;BMP_temperature;BMP_pressure;BME280_temperature;BME280_humidity;BME280_pressure;Samples;Min_cycle;Max_cycle;Signal;HPM_P1;HPM_P2
2021/11/15 00:01:11;;;;;;;75.30;49.70;;;;;;;8.31;68.87;101801.78;1740060;82;21147;-69
2021/11/15 00:03:36;;;;;;;68.95;45.48;;;;;;;8.27;68.90;101797.39;1739941;81;20987;-69
2021/11/15 00:06:03;;;;;;;67.27;43.95;;;;;;;8.26;68.96;101789.60;1740076;82;21093;-69
2021/11/15 00:08:31;;;;;;;68.42;44.25;;;;;;;8.23;68.97;101787.69;1739741;82;21042;-69
2021/11/15 00:10:57;;;;;;;70.20;45.83;;;;;;;8.23;68.96;101784.21;1739970;82;21069;-69
2021/11/15 00:13:24;;;;;;;68.70;43.63;;;;;;;8.22;68.98;101783.88;1739944;81;21132;-69
2021/11/15 00:15:52;;;;;;;67.62;43.02;;;;;;;8.21;69.02;101780.93;1739734;82;21015;-69
2021/11/15 00:18:19;;;;;;;76.60;48.42;;;;;;;8.21;69.03;101781.74;1739741;81;21556;-69
2021/11/15 00:20:48;;;;;;;70.83;44.50;;;;;;;8.22;69.04;101776.71;1739847;82;21092;-69
2021/11/15 00:23:16;;;;;;;69.77;46.85;;;;;;;8.21;69.01;101779.08;1739879;81;21501;-69
2021/11/15 00:25:43;;;;;;;81.05;50.17;;;;;;;8.18;69.02;101782.16;1739916;82;21186;-69
2021/11/15 00:28:09;;;;;;;80.45;49.95;;;;;;;8.17;69.07;101789.85;1739841;82;20951;-69
2021/11/15 00:30:35;;;;;;;69.30;46.00;;;;;;;8.17;69.05;101782.39;1740289;82;20975;-69
2021/11/15 00:33:03;;;;;;;78.35;48.90;;;;;;;8.16;69.05;101783.39;1762588;81;21055;-69
2021/11/15 00:35:29;;;;;;;81.28;49.20;;;;;;;8.14;69.05;101786.28;1770463;81;21058;-69
2021/11/15 00:37:56;;;;;;;72.50;46.30;;;;;;;8.15;69.04;101787.91;1766633;81;21099;-69
2021/11/15 00:40:22;;;;;;;74.65;47.83;;;;;;;8.19;69.06;101791.80;1770217;81;20935;-69
2021/11/15 00:42:49;;;;;;;78.35;49.63;;;;;;;8.17;69.08;101789.85;1770007;81;21620;-69
2021/11/15 00:45:16;;;;;;;71.00;46.28;;;;;;;8.19;69.06;101790.47;1770357;81;21486;-69
2021/11/15 00:47:44;;;;;;;80.40;51.45;;;;;;;8.20;68.99;101793.42;1770245;81;21074;-69
2021/11/15 00:50:15;;;;;;;86.82;53.60;;;;;;;8.18;69.00;101786.16;1770344;81;21411;-69
2021/11/15 00:52:43;;;;;;;78.85;51.68;;;;;;;8.20;69.00;101789.95;1770360;81;21478;-69
2021/11/15 00:55:10;;;;;;;76.35;49.80;;;;;;;8.21;68.97;101784.41;1770445;81;21498;-69
2021/11/15 00:57:37;;;;;;;78.47;48.23;;;;;;;8.22;68.97;101771.91;1769860;81;21188;-69
2021/11/15 01:00:07;;;;;;;86.60;55.28;;;;;;;8.23;68.98;101770.91;1770553;81;21305;-69
2021/11/15 01:02:34;;;;;;;83.80;55.00;;;;;;;8.22;68.93;101771.91;1770410;81;21177;-69
2021/11/15 01:05:02;;;;;;;93.27;56.90;;;;;;;8.22;69.01;101776.71;1770307;81;20991;-69
2021/11/15 01:07:29;;;;;;;87.47;54.70;;;;;;;8.24;69.11;101781.84;1769689;81;21474;-68
2021/11/15 01:09:56;;;;;;;80.80;52.62;;;;;;;8.26;69.10;101784.28;1770741;81;21038;-68
2021/11/15 01:12:23;;;;;;;81.20;50.83;;;;;;;8.28;69.13;101782.23;1770434;81;21018;-69
2021/11/15 01:14:50;;;;;;;80.28;52.50;;;;;;;8.30;69.09;101786.84;1770744;81;21100;-69
2021/11/15 01:17:19;;;;;;;77.80;50.05;;;;;;;8.29;69.04;101794.02;1770033;81;20951;-69
2021/11/15 01:19:45;;;;;;;76.07;51.15;;;;;;;8.28;69.07;101788.89;1770453;81;21010;-69
2021/11/15 01:22:12;;;;;;;71.00;46.28;;;;;;;8.30;69.03;101790.84;1769858;81;20999;-69
2021/11/15 01:24:39;;;;;;;77.00;50.78;;;;;;;8.31;68.98;101801.78;1770373;81;21038;-69
2021/11/15 01:27:06;;;;;;;79.47;51.42;;;;;;;8.28;68.92;101806.19;1769356;81;22195;-69
2021/11/15 01:29:33;;;;;;;89.70;56.90;;;;;;;8.22;68.92;101817.16;1749509;81;20932;-69
2021/11/15 01:32:00;;;;;;;85.80;55.78;;;;;;;8.17;68.98;101819.13;1768541;81;20995;-68
2021/11/15 01:34:29;;;;;;;80.20;52.15;;;;;;;8.16;69.02;101820.16;1770425;81;20951;-69
2021/11/15 01:36:55;;;;;;;86.92;57.15;;;;;;;8.16;69.04;101815.33;1770094;81;20991;-68
2021/11/15 01:39:25;;;;;;;83.60;55.28;;;;;;;8.17;69.07;101819.65;1770447;81;21816;-69
2021/11/15 01:41:52;;;;;;;74.97;48.20;;;;;;;8.16;69.10;101817.99;1770432;81;20920;-69
2021/11/15 01:44:19;;;;;;;79.20;53.75;;;;;;;8.13;69.16;101819.77;1770078;81;21113;-68
2021/11/15 01:46:46;;;;;;;79.27;53.83;;;;;;;8.16;69.09;101813.52;1770483;81;21517;-68
2021/11/15 01:49:14;;;;;;;85.17;57.60;;;;;;;8.15;69.07;101817.17;1770469;81;21129;-68
2021/11/15 01:51:41;;;;;;;78.75;51.33;;;;;;;8.14;69.11;101810.75;1770186;81;21159;-69
2021/11/15 01:54:10;;;;;;;81.40;53.33;;;;;;;8.14;69.14;101823.54;1770356;81;21073;-69
2021/11/15 01:56:37;;;;;;;86.80;58.75;;;;;;;8.14;69.15;101820.88;1770332;81;21416;-69
2021/11/15 01:59:04;;;;;;;81.95;53.35;;;;;;;8.15;69.16;101817.17;1770428;81;20944;-69
2021/11/15 02:01:33;;;;;;;84.95;52.73;;;;;;;8.18;69.17;101811.44;1770575;81;20951;-69
2021/11/15 02:04:00;;;;;;;82.72;53.35;;;;;;;8.19;69.14;101814.42;1768620;80;21168;-68
2021/11/15 02:06:27;;;;;;;80.38;54.63;;;;;;;8.20;69.14;101811.25;1740083;81;21093;-68
2021/11/15 02:08:53;;;;;;;75.72;50.03;;;;;;;8.23;69.10;101816.96;1739932;81;21556;-68
2021/11/15 02:11:20;;;;;;;83.05;53.70;;;;;;;8.25;69.10;101821.25;1740299;81;21191;-68
2021/11/15 02:13:47;;;;;;;92.02;56.15;;;;;;;8.27;69.04;101812.55;1739456;81;20974;-69
2021/11/15 02:16:14;;;;;;;76.80;48.00;;;;;;;8.28;69.00;101812.33;1739985;81;21150;-69
2021/11/15 02:18:42;;;;;;;75.25;49.42;;;;;;;8.29;68.96;101810.48;1739839;81;21078;-69
2021/11/15 02:21:09;;;;;;;75.47;49.70;;;;;;;8.30;68.91;101810.80;1740089;81;21586;-69
2021/11/15 02:23:39;;;;;;;73.97;47.90;;;;;;;8.30;68.87;101816.94;1739857;81;21034;-68
2021/11/15 02:26:08;;;;;;;70.70;46.75;;;;;;;8.32;68.79;101804.73;1739960;81;20939;-68
2021/11/15 02:28:38;;;;;;;77.47;49.67;;;;;;;8.31;68.73;101805.25;1739771;81;21545;-68
2021/11/15 02:31:05;;;;;;;80.22;51.37;;;;;;;8.30;68.72;101809.47;1756411;81;21002;-69
2021/11/15 02:33:31;;;;;;;91.02;56.13;;;;;;;8.29;68.75;101812.65;1770454;81;21490;-69
2021/11/15 02:35:59;;;;;;;79.40;50.83;;;;;;;8.30;68.79;101816.94;1770685;81;20951;-69
2021/11/15 02:38:26;;;;;;;78.37;51.33;;;;;;;8.31;68.83;101822.55;1770420;81;21077;-69
2021/11/15 02:40:53;;;;;;;87.15;54.70;;;;;;;8.31;68.87;101840.37;1770442;81;21119;-69
2021/11/15 02:43:20;;;;;;;85.32;53.35;;;;;;;8.30;68.86;101836.09;1770234;81;20959;-69
2021/11/15 02:45:48;;;;;;;80.57;52.48;;;;;;;8.30;68.89;101838.23;1770633;81;20994;-68
2021/11/15 02:48:21;;;;;;;89.30;56.70;;;;;;;8.30;68.88;101847.55;1770315;81;20975;-69
2021/11/15 02:50:48;;;;;;;;;;;;;;;8.30;68.89;101858.72;1773330;81;21034;-69
2021/11/15 02:53:15;;;;;;;86.00;52.73;;;;;;;8.30;68.86;101861.38;1770587;81;20886;-69
2021/11/15 02:55:43;;;;;;;83.82;54.35;;;;;;;8.29;68.85;101862.38;1770513;81;21031;-69
2021/11/15 02:58:11;;;;;;;87.78;55.05;;;;;;;8.27;68.80;101867.93;1769870;81;21026;-69
2021/11/15 03:00:42;;;;;;;93.58;57.95;;;;;;;8.23;68.80;101879.52;1770551;81;21010;-69
2021/11/15 03:03:10;;;;;;;91.15;58.70;;;;;;;8.21;68.83;101870.91;1766943;81;21494;-69
2021/11/15 03:05:40;;;;;;;84.05;52.15;;;;;;;8.19;68.87;101869.47;1770506;81;22161;-69
2021/11/15 03:08:07;;;;;;;93.42;59.38;;;;;;;8.19;68.91;101876.12;1763298;81;21113;-69
2021/11/15 03:10:35;;;;;;;86.40;55.75;;;;;;;8.19;68.94;101880.12;1738520;82;21604;-69
2021/11/15 03:13:04;;;;;;;79.77;52.23;;;;;;;8.20;68.95;101881.26;1738264;81;21585;-68
2021/11/15 03:15:35;;;;;;;83.10;52.45;;;;;;;8.19;68.96;101875.64;1770430;81;21031;-69
2021/11/15 03:18:06;;;;;;;98.00;58.45;;;;;;;8.20;68.96;101873.27;1770757;81;21777;-69
2021/11/15 03:20:37;;;;;;;85.55;54.65;;;;;;;8.21;68.96;101874.09;1770485;81;21051;-69
2021/11/15 03:23:10;;;;;;;78.60;49.88;;;;;;;8.23;68.97;101872.86;1770709;81;20976;-68
2021/11/15 03:25:37;;;;;;;83.75;53.52;;;;;;;8.25;68.96;101874.48;1769625;81;20991;-68
2021/11/15 03:28:07;;;;;;;79.55;53.48;;;;;;;8.27;68.95;101878.58;1770517;81;20998;-69
2021/11/15 03:30:33;;;;;;;91.28;58.58;;;;;;;8.27;68.92;101879.91;1770726;81;21842;-69
2021/11/15 03:33:00;;;;;;;85.00;55.40;;;;;;;8.28;68.92;101885.53;1769313;81;21042;-68
2021/11/15 03:35:27;;;;;;;86.35;54.13;;;;;;;8.29;68.92;101886.34;1770499;81;21151;-69
2021/11/15 03:37:54;;;;;;;86.80;55.73;;;;;;;8.29;68.92;101887.19;1770717;81;21572;-69
2021/11/15 03:40:24;;;;;;;85.67;55.78;;;;;;;8.30;68.91;101885.34;1746433;81;21480;-68
2021/11/15 03:42:54;;;;;;;74.85;48.95;;;;;;;8.32;68.91;101878.75;1739471;81;21762;-68
2021/11/15 03:45:21;;;;;;;83.95;53.65;;;;;;;8.34;68.88;101887.36;1769286;81;21553;-68
2021/11/15 03:47:47;;;;;;;88.17;55.15;;;;;;;8.34;68.83;101894.02;1770550;81;21058;-69
2021/11/15 03:50:14;;;;;;;90.15;56.35;;;;;;;8.32;68.85;101893.39;1769802;81;21066;-69
2021/11/15 03:52:44;;;;;;;71.42;46.25;;;;;;;8.31;68.85;101901.60;1769992;81;21521;-69
2021/11/15 03:55:14;;;;;;;75.00;47.67;;;;;;;8.28;68.88;101895.36;1769780;81;21096;-69
2021/11/15 03:57:41;;;;;;;90.83;57.85;;;;;;;8.26;68.89;101894.25;1770330;81;21553;-69
2021/11/15 04:00:10;;;;;;;78.92;51.37;;;;;;;8.22;68.87;101905.80;1769938;81;22054;-70
2021/11/15 04:02:39;;;;;;;82.12;51.40;;;;;;;8.19;68.92;101902.74;1770313;81;21528;-69
2021/11/15 04:05:07;;;;;;;90.97;57.00;;;;;;;8.18;68.93;101903.78;1769139;81;21631;-69
2021/11/15 04:07:39;;;;;;;92.33;58.78;;;;;;;8.13;68.97;101905.73;1767011;81;21093;-69
2021/11/15 04:10:11;;;;;;;83.45;53.17;;;;;;;8.11;68.97;101915.77;1770673;81;21039;-69
2021/11/15 04:12:38;;;;;;;95.95;58.17;;;;;;;8.08;69.00;101912.70;1770198;81;21007;-69
2021/11/15 04:15:05;;;;;;;92.95;58.10;;;;;;;8.06;69.06;101922.23;1770354;81;21027;-69
2021/11/15 04:17:33;;;;;;;87.55;54.75;;;;;;;8.05;69.10;101917.11;1770722;81;21006;-69
2021/11/15 04:20:00;;;;;;;95.42;59.60;;;;;;;8.06;69.15;101924.90;1770035;81;21165;-69
2021/11/15 04:22:26;;;;;;;83.58;54.67;;;;;;;8.06;69.17;101930.22;1770624;81;21514;-69
2021/11/15 04:24:53;;;;;;;71.05;47.62;;;;;;;8.09;69.20;101928.96;1770186;81;20950;-69
2021/11/15 04:27:20;;;;;;;77.47;49.77;;;;;;;8.09;69.20;101935.62;1770371;81;21014;-69
2021/11/15 04:29:47;;;;;;;76.55;47.38;;;;;;;8.06;69.23;101936.02;1743825;81;21008;-69
2021/11/15 04:32:14;;;;;;;86.32;53.25;;;;;;;8.05;69.27;101937.06;1746503;81;21836;-69
2021/11/15 04:34:40;;;;;;;95.12;58.02;;;;;;;8.05;69.30;101940.53;1770308;81;20995;-69
2021/11/15 04:37:07;;;;;;;91.00;57.85;;;;;;;8.07;69.29;101943.01;1770519;81;21521;-68
2021/11/15 04:39:34;;;;;;;82.33;52.10;;;;;;;8.07;69.31;101946.48;1770555;81;21055;-68
2021/11/15 04:42:00;;;;;;;77.78;49.77;;;;;;;8.09;69.30;101947.08;1770510;81;20948;-68
2021/11/15 04:44:27;;;;;;;79.90;52.75;;;;;;;8.11;69.29;101957.02;1770536;81;21104;-68
2021/11/15 04:46:53;;;;;;;83.85;52.43;;;;;;;8.11;69.24;101951.69;1770243;81;20948;-69
2021/11/15 04:49:20;;;;;;;80.83;52.17;;;;;;;8.12;69.22;101948.52;1770629;81;21034;-68
2021/11/15 04:51:47;;;;;;;87.72;55.63;;;;;;;8.11;69.25;101952.20;1770453;81;21094;-69
2021/11/15 04:54:14;;;;;;;87.10;54.55;;;;;;;8.11;69.26;101955.69;1769768;81;20947;-68
2021/11/15 04:56:42;;;;;;;69.90;46.02;;;;;;;8.12;69.24;101958.64;1770693;81;21146;-69
2021/11/15 04:59:09;;;;;;;81.12;50.33;;;;;;;8.11;69.21;101958.86;1752713;79;20948;-68
2021/11/15 05:01:36;;;;;;;83.80;53.15;;;;;;;8.12;69.20;101964.48;1738303;82;21494;-69
2021/11/15 05:04:03;;;;;;;69.05;45.45;;;;;;;8.11;69.18;101964.19;1738445;82;20975;-68
2021/11/15 05:06:29;;;;;;;75.90;46.85;;;;;;;8.12;69.17;101957.31;1738175;82;21102;-68
2021/11/15 05:08:56;;;;;;;73.60;46.95;;;;;;;8.13;69.15;101962.14;1738242;82;21572;-69
2021/11/15 05:11:23;;;;;;;64.82;43.90;;;;;;;8.13;69.14;101965.63;1738535;82;21545;-68
2021/11/15 05:13:51;;;;;;;60.38;40.75;;;;;;;8.15;69.03;101972.05;1738194;82;21011;-68
2021/11/15 05:16:18;;;;;;;68.90;46.10;;;;;;;8.16;68.96;101975.86;1738322;82;20987;-69
2021/11/15 05:18:44;;;;;;;71.07;47.13;;;;;;;8.15;68.82;101976.86;1738304;82;21042;-68
2021/11/15 05:21:11;;;;;;;72.70;44.80;;;;;;;8.15;68.75;101985.36;1738617;82;21137;-69
2021/11/15 05:23:40;;;;;;;69.35;45.88;;;;;;;8.16;68.67;101993.64;1738227;82;20963;-69
2021/11/15 05:26:08;;;;;;;66.50;44.50;;;;;;;8.16;68.60;101989.16;1739798;81;20979;-69
2021/11/15 05:28:35;;;;;;;63.15;44.38;;;;;;;8.16;68.51;101990.50;1769958;81;20967;-69
2021/11/15 05:31:01;;;;;;;58.55;39.48;;;;;;;8.19;68.42;102003.88;1770541;81;20955;-69
2021/11/15 05:33:28;;;;;;;65.25;43.65;;;;;;;8.18;68.32;102004.91;1770287;81;21120;-69
2021/11/15 05:35:54;;;;;;;69.53;44.93;;;;;;;8.18;68.28;102013.71;1769554;81;21431;-69
2021/11/15 05:38:21;;;;;;;60.43;41.18;;;;;;;8.18;68.24;102021.70;1770262;81;20983;-69
2021/11/15 05:40:47;;;;;;;68.20;44.13;;;;;;;8.18;68.17;102023.03;1770309;81;21577;-70
2021/11/15 05:43:14;;;;;;;57.75;38.42;;;;;;;8.18;68.17;102037.67;1770197;81;20955;-69
2021/11/15 05:45:41;;;;;;;58.15;41.30;;;;;;;8.17;68.08;102037.88;1770427;81;21108;-69
2021/11/15 05:48:07;;;;;;;54.73;38.42;;;;;;;8.15;68.05;102039.41;1770184;81;20998;-69
2021/11/15 05:50:34;;;;;;;51.35;35.90;;;;;;;8.15;68.00;102046.05;1769785;81;21053;-69
2021/11/15 05:53:01;;;;;;;59.60;42.30;;;;;;;8.13;67.96;102048.64;1770273;81;20971;-69
2021/11/15 05:55:28;;;;;;;58.92;40.55;;;;;;;8.09;67.99;102050.86;1770582;81;21549;-69
2021/11/15 05:57:56;;;;;;;56.55;39.27;;;;;;;8.08;68.02;102047.09;1751851;81;21102;-69
2021/11/15 06:00:25;;;;;;;52.60;36.20;;;;;;;8.06;67.99;102048.64;1738077;82;21196;-68
2021/11/15 06:02:53;;;;;;;57.80;39.08;;;;;;;8.03;68.00;102054.36;1738464;82;21118;-69
2021/11/15 06:05:20;;;;;;;55.65;38.65;;;;;;;8.00;68.03;102050.77;1738212;82;21023;-70
2021/11/15 06:07:47;;;;;;;55.67;37.65;;;;;;;7.97;68.07;102051.17;1738297;82;21055;-70
2021/11/15 06:10:15;;;;;;;51.75;33.33;;;;;;;7.97;68.15;102059.16;1738070;82;20948;-70
2021/11/15 06:12:42;;;;;;;53.52;37.67;;;;;;;7.99;68.16;102062.41;1738520;82;20987;-69
2021/11/15 06:15:12;;;;;;;54.35;37.25;;;;;;;7.99;68.10;102060.60;1738636;82;21102;-69
2021/11/15 06:17:38;;;;;;;48.65;34.15;;;;;;;7.98;68.10;102068.77;1740047;82;21067;-69
2021/11/15 06:20:07;;;;;;;54.53;37.10;;;;;;;7.99;68.13;102071.25;1738293;82;21066;-68
2021/11/15 06:22:34;;;;;;;55.92;35.88;;;;;;;7.97;68.07;102072.46;1738662;82;21121;-69
2021/11/15 06:25:01;;;;;;;54.93;38.23;;;;;;;7.97;68.04;102071.95;1738962;81;21459;-69
2021/11/15 06:27:27;;;;;;;51.75;34.58;;;;;;;7.94;68.06;102076.34;1770766;81;22410;-70
2021/11/15 06:29:54;;;;;;;52.75;35.75;;;;;;;7.96;68.12;102074.80;1770436;81;20955;-69
2021/11/15 06:32:21;;;;;;;60.17;40.98;;;;;;;7.96;68.09;102080.11;1770557;81;21089;-69
2021/11/15 06:34:48;;;;;;;55.50;37.65;;;;;;;7.97;68.10;102082.59;1770458;81;21112;-69
2021/11/15 06:37:14;;;;;;;46.20;31.40;;;;;;;7.97;68.09;102081.26;1770684;81;21494;-70
2021/11/15 06:39:41;;;;;;;54.05;37.58;;;;;;;8.01;68.04;102082.19;1770476;81;21418;-69
2021/11/15 06:42:08;;;;;;;48.83;35.03;;;;;;;7.98;67.98;102082.89;1770908;81;21004;-70
2021/11/15 06:44:35;;;;;;;54.77;37.20;;;;;;;8.00;67.99;102093.34;1770439;81;21039;-69
2021/11/15 06:47:02;;;;;;;64.03;41.08;;;;;;;8.00;67.95;102089.36;1770796;81;21120;-70
2021/11/15 06:49:28;;;;;;;57.62;39.40;;;;;;;8.03;67.93;102094.77;1770325;81;21168;-69
2021/11/15 06:51:56;;;;;;;55.00;37.78;;;;;;;8.05;67.83;102094.87;1770653;81;20991;-70
2021/11/15 06:54:22;;;;;;;61.20;41.90;;;;;;;8.05;67.84;102092.21;1770323;81;21010;-69
2021/11/15 06:56:49;;;;;;;52.70;37.05;;;;;;;8.09;67.77;102094.77;1769987;81;21053;-69
2021/11/15 06:59:16;;;;;;;55.17;37.93;;;;;;;8.11;67.68;102102.57;1770317;81;21560;-68
2021/11/15 07:01:42;;;;;;;50.73;35.38;;;;;;;8.12;67.66;102103.69;1770808;81;21041;-69
2021/11/15 07:04:09;;;;;;;47.00;33.02;;;;;;;8.17;67.67;102103.91;1759618;81;20955;-69
2021/11/15 07:06:37;;;;;;;45.80;30.92;;;;;;;8.22;67.53;102107.28;1751665;80;21081;-68
2021/11/15 07:09:06;;;;;;;51.18;34.78;;;;;;;8.23;67.39;102108.42;1770304;81;21501;-69
2021/11/15 07:11:34;;;;;;;45.50;32.58;;;;;;;8.26;67.26;102118.34;1763393;81;21133;-69
2021/11/15 07:14:04;;;;;;;51.10;35.63;;;;;;;8.26;67.06;102114.34;1750768;81;21014;-69
2021/11/15 07:16:32;;;;;;;53.05;36.05;;;;;;;8.24;66.93;102121.22;1770471;81;21034;-69
2021/11/15 07:18:59;;;;;;;50.15;33.00;;;;;;;8.26;66.94;102124.51;1770538;81;21062;-69
2021/11/15 07:21:25;;;;;;;50.38;33.23;;;;;;;8.31;66.77;102130.55;1770523;81;21082;-69
2021/11/15 07:23:52;;;;;;;49.15;34.53;;;;;;;8.31;66.71;102139.34;1770033;81;21094;-69
2021/11/15 07:26:19;;;;;;;49.83;33.58;;;;;;;8.32;66.58;102145.48;1769783;81;21529;-70
2021/11/15 07:28:46;;;;;;;46.42;32.25;;;;;;;8.33;66.51;102143.97;1770305;81;21034;-68
2021/11/15 07:31:13;;;;;;;43.40;31.87;;;;;;;8.38;66.58;102140.72;1770603;81;21062;-69
2021/11/15 07:33:40;;;;;;;47.70;32.90;;;;;;;8.41;66.66;102146.97;1769911;81;21053;-69
2021/11/15 07:36:07;;;;;;;43.42;31.60;;;;;;;8.55;66.43;102147.79;1770356;81;21529;-69
2021/11/15 07:38:34;;;;;;;41.13;29.50;;;;;;;8.59;66.20;102145.05;1770420;81;21077;-69
2021/11/15 07:41:01;;;;;;;44.63;31.25;;;;;;;8.63;66.03;102149.75;1770522;81;20991;-68
2021/11/15 07:43:27;;;;;;;48.70;34.83;;;;;;;8.67;65.84;102153.64;1770210;81;21497;-68
2021/11/15 07:45:54;;;;;;;45.75;32.03;;;;;;;8.69;65.50;102159.59;1770468;81;21065;-68
2021/11/15 07:48:21;;;;;;;46.18;32.55;;;;;;;8.71;65.27;102159.89;1770370;81;21183;-69
2021/11/15 07:50:48;;;;;;;49.98;30.55;;;;;;;8.76;65.14;102160.92;1769702;81;20947;-69
2021/11/15 07:53:15;;;;;;;43.33;31.45;;;;;;;8.80;65.00;102164.81;1770610;81;21023;-69
2021/11/15 07:55:42;;;;;;;47.58;33.18;;;;;;;8.86;64.69;102164.50;1772234;81;21470;-69
2021/11/15 07:58:11;;;;;;;42.20;29.42;;;;;;;8.91;64.62;102162.84;1770526;81;21066;-68
2021/11/15 08:00:38;;;;;;;46.63;34.05;;;;;;;8.97;64.16;102158.54;1770504;81;21163;-69
2021/11/15 08:03:06;;;;;;;46.42;32.55;;;;;;;8.99;63.92;102164.49;1770033;81;21007;-69
2021/11/15 08:05:35;;;;;;;44.33;31.68;;;;;;;9.03;63.83;102163.05;1770147;81;21640;-69
2021/11/15 08:08:02;;;;;;;47.60;33.95;;;;;;;9.09;63.61;102165.41;1770427;81;21007;-68
2021/11/15 08:10:29;;;;;;;44.03;32.15;;;;;;;9.13;63.34;102171.95;1770351;81;21537;-69
2021/11/15 08:12:57;;;;;;;44.67;33.55;;;;;;;9.12;63.05;102176.47;1770306;81;21152;-69
2021/11/15 08:15:26;;;;;;;45.58;32.10;;;;;;;9.12;62.74;102183.66;1770461;81;21050;-69
2021/11/15 08:17:55;;;;;;;46.55;33.35;;;;;;;9.09;62.72;102186.22;1770329;81;21066;-69
2021/11/15 08:20:29;;;;;;;46.13;33.73;;;;;;;9.06;62.37;102193.28;1770344;81;21450;-70
2021/11/15 08:23:00;;;;;;;46.18;31.30;;;;;;;8.99;62.36;102191.14;1762340;81;21069;-69
2021/11/15 08:25:51;;;;;;;43.83;31.30;;;;;;;8.99;62.45;102200.47;1764539;81;21082;-69
2021/11/15 08:28:19;;;;;;;50.50;34.10;;;;;;;8.93;61.89;102200.77;1743111;81;21066;-68
2021/11/15 08:30:46;;;;;;;42.27;31.95;;;;;;;8.77;61.86;102199.03;1742056;81;21078;-68
2021/11/15 08:33:13;;;;;;;43.00;31.77;;;;;;;8.75;62.06;102208.55;1758189;81;21147;-69
2021/11/15 08:35:40;;;;;;;45.70;32.30;;;;;;;8.76;61.84;102210.73;1739892;82;21065;-69
2021/11/15 08:38:48;;;;;;;44.75;33.20;;;;;;;8.72;61.60;102208.98;1725973;83;21662;-68
2021/11/15 08:41:19;;;;;;;45.25;30.88;;;;;;;8.66;61.42;102213.79;1683739;82;20949;-69
2021/11/15 08:43:45;;;;;;;47.23;33.13;;;;;;;8.63;61.47;102217.67;1740087;82;21022;-69
2021/11/15 08:46:15;;;;;;;41.73;29.37;;;;;;;8.64;61.41;102223.81;1737051;82;20987;-69
2021/11/15 08:48:43;;;;;;;39.90;28.45;;;;;;;8.66;61.22;102217.78;1759480;81;21042;-69
2021/11/15 08:51:12;;;;;;;40.92;29.12;;;;;;;8.64;61.08;102223.30;1764340;80;22420;-69
2021/11/15 08:53:40;;;;;;;41.13;28.52;;;;;;;8.60;60.95;102225.25;1761346;81;21071;-70
2021/11/15 08:56:08;;;;;;;41.20;28.85;;;;;;;8.54;60.86;102216.22;1758552;81;21006;-69
2021/11/15 08:58:37;;;;;;;39.80;28.47;;;;;;;8.51;60.97;102221.13;1746947;81;21071;-70
2021/11/15 09:01:03;;;;;;;38.23;28.25;;;;;;;8.51;60.91;102217.95;1767441;81;21489;-69
2021/11/15 09:03:30;;;;;;;41.68;28.80;;;;;;;8.52;60.90;102214.77;1757489;81;21143;-69
2021/11/15 09:05:57;;;;;;;39.92;28.65;;;;;;;8.52;60.75;102216.92;1739437;81;20947;-70
2021/11/15 09:08:24;;;;;;;39.92;28.47;;;;;;;8.54;60.45;102216.22;1736734;82;21093;-69
2021/11/15 09:10:51;;;;;;;40.10;29.37;;;;;;;8.59;60.38;102219.11;1736828;82;21627;-69
2021/11/15 09:13:19;;;;;;;38.90;28.73;;;;;;;8.62;59.99;102216.53;1758167;81;21046;-70
2021/11/15 09:15:46;;;;;;;40.70;29.70;;;;;;;8.61;59.61;102218.89;1733538;81;21101;-70
2021/11/15 09:18:12;;;;;;;36.53;26.65;;;;;;;8.59;59.70;102219.63;1763700;81;21147;-69
2021/11/15 09:20:39;;;;;;;40.10;28.87;;;;;;;8.61;59.56;102210.90;1764954;81;20987;-70
2021/11/15 09:23:06;;;;;;;39.00;28.83;;;;;;;8.68;59.56;102217.87;1761555;81;21592;-70
2021/11/15 09:25:34;;;;;;;41.35;30.05;;;;;;;8.76;59.15;102222.20;1754923;81;21054;-70
2021/11/15 09:28:01;;;;;;;42.93;30.20;;;;;;;8.80;58.95;102234.59;1754576;81;21133;-69
2021/11/15 09:30:28;;;;;;;42.70;31.10;;;;;;;8.81;58.75;102233.05;1755345;81;21066;-71
2021/11/15 09:32:55;;;;;;;42.48;30.85;;;;;;;8.79;58.57;102228.45;1738805;81;21018;-70
2021/11/15 09:35:22;;;;;;;43.58;31.42;;;;;;;8.74;58.40;102224.75;1737194;82;21125;-69
2021/11/15 09:37:48;;;;;;;45.15;32.03;;;;;;;8.66;58.61;102219.94;1743112;81;21085;-70
2021/11/15 09:40:15;;;;;;;43.13;30.88;;;;;;;8.65;58.95;102236.95;1736451;82;21177;-69
2021/11/15 09:42:42;;;;;;;42.85;30.20;;;;;;;8.72;59.10;102236.95;1736789;82;21011;-69
2021/11/15 09:45:09;;;;;;;44.20;30.45;;;;;;;8.66;58.95;102232.44;1736824;82;21026;-70
2021/11/15 09:47:39;;;;;;;44.70;31.17;;;;;;;8.57;59.28;102236.30;1743377;81;21054;-70
2021/11/15 09:50:12;;;;;;;44.27;31.35;;;;;;;8.49;59.63;102237.33;1757570;81;21123;-69
2021/11/15 09:52:39;;;;;;;44.27;31.52;;;;;;;8.40;59.97;102234.53;1767602;81;21130;-70
2021/11/15 09:55:07;;;;;;;46.30;33.15;;;;;;;8.31;60.02;102239.69;1767493;81;21059;-68
2021/11/15 09:57:38;;;;;;;43.83;31.52;;;;;;;8.17;60.42;102246.30;1764274;81;21090;-69
2021/11/15 10:00:08;;;;;;;48.05;33.75;;;;;;;8.08;61.01;102246.67;1756973;81;21680;-69
2021/11/15 10:02:38;;;;;;;45.58;31.73;;;;;;;8.06;61.23;102255.36;1734972;81;21010;-70
2021/11/15 10:05:10;;;;;;;43.17;30.75;;;;;;;8.00;61.30;102256.99;1735776;81;21221;-70
2021/11/15 10:07:46;;;;;;;;;;;;;;;7.96;61.68;102259.71;1739710;81;21003;-70
2021/11/15 10:10:45;;;;;;;43.05;28.32;;;;;;;7.97;61.73;102269.36;1740547;81;20140;-69
2021/11/15 10:13:25;;;;;;;44.00;30.37;;;;;;;8.00;61.61;102264.97;1766682;81;21059;-69
2021/11/15 10:16:12;;;;;;;44.35;31.57;;;;;;;8.02;61.69;102275.41;1767566;81;21511;-69
2021/11/15 10:18:53;;;;;;;42.43;29.30;;;;;;;8.04;61.54;102272.87;1764362;81;21144;-69
2021/11/15 10:21:36;;;;;;;42.20;28.12;;;;;;;7.95;61.15;102277.52;1757957;81;21051;-70
2021/11/15 10:24:17;;;;;;;37.98;27.30;;;;;;;7.85;61.37;102282.38;1767093;81;21109;-70
2021/11/15 10:26:56;;;;;;;36.95;25.90;;;;;;;7.81;61.64;102290.45;1767628;81;20999;-69
2021/11/15 10:29:35;;;;;;;36.75;25.10;;;;;;;7.83;61.78;102288.91;1763095;81;21443;-69
2021/11/15 10:32:11;;;;;;;37.35;25.10;;;;;;;7.87;61.49;102289.67;1737037;81;21161;-70
2021/11/15 10:34:44;;;;;;;37.65;27.60;;;;;;;7.87;61.26;102296.84;1735906;81;21047;-69
2021/11/15 10:37:18;;;;;;;34.45;23.52;;;;;;;7.89;61.46;102295.59;1745676;81;21007;-69
2021/11/15 10:39:51;;;;;;;37.23;25.17;;;;;;;7.96;61.29;102294.30;1767208;81;21836;-70
2021/11/15 10:42:28;;;;;;;34.03;24.60;;;;;;;8.01;61.05;102302.53;1761089;81;21138;-70
2021/11/15 10:44:59;;;;;;;36.73;23.57;;;;;;;8.03;60.91;102312.48;1759871;81;21151;-68
2021/11/15 10:47:36;;;;;;;33.50;23.65;;;;;;;8.05;60.77;102311.75;1756980;81;21485;-69
2021/11/15 10:50:28;;;;;;;32.17;24.10;;;;;;;7.98;60.36;102315.72;1749188;81;21033;-70
2021/11/15 10:53:11;;;;;;;32.13;23.22;;;;;;;7.91;60.65;102316.70;1755529;81;21046;-70
2021/11/15 10:55:46;;;;;;;34.15;23.05;;;;;;;7.80;60.80;102318.56;1742907;81;21529;-69
2021/11/15 10:58:22;;;;;;;34.25;23.57;;;;;;;7.79;60.93;102327.56;1751397;81;21211;-68
2021/11/15 11:00:52;;;;;;;35.08;24.90;;;;;;;7.82;60.92;102319.20;1761661;81;21051;-70
2021/11/15 11:03:21;;;;;;;34.00;23.73;;;;;;;7.87;60.93;102328.77;1739484;81;21584;-70
2021/11/15 11:05:52;;;;;;;39.53;27.07;;;;;;;7.92;60.94;102332.45;1754626;81;21108;-68
2021/11/15 11:08:23;;;;;;;38.42;26.23;;;;;;;7.93;60.92;102329.28;1747830;81;21123;-71
2021/11/15 11:11:06;;;;;;;35.48;24.35;;;;;;;7.89;60.93;102332.03;1740677;81;21932;-69
2021/11/15 11:13:52;;;;;;;38.48;26.45;;;;;;;7.88;61.01;102331.21;1749133;81;21037;-70
2021/11/15 11:16:19;;;;;;;37.08;25.90;;;;;;;7.82;60.92;102337.82;1767505;80;21087;-69
2021/11/15 11:18:55;;;;;;;34.05;23.50;;;;;;;7.75;60.96;102345.25;1760786;81;21098;-70
2021/11/15 11:21:45;;;;;;;35.28;24.07;;;;;;;7.69;60.84;102342.54;1764603;81;21549;-70
2021/11/15 11:26:56;;;;;;;42.20;26.52;;;;;;;7.51;60.81;102347.84;1748961;81;21557;-68